PAL728 RPVM-RPLL
Flight info
| Callsign | PAL728 |
|---|---|
| Flight time | 0h 53m |
| Altitude | 38000 |
| Route | PARAO4P PARAO DCT ROX DCT LAIYA LAIYA3R |
| Aircraft | A359/H-SDE2E3GHIJ3J4J5LM1ORWXY/LB1D1 |
Departure
| Time | 2026-05-04 03:33 |
|---|---|
| Airport | Mactan Cebu International Airport (RPVM) |
Arrival
| Time | 2026-05-04 04:26 |
|---|---|
| Airport | Ninoy Aquino International Airport (RPLL) |
| Time | Latitude | Longitude | Altitude | Speed | Heading |
|---|---|---|---|---|---|
| 2026-05-04 03:02 | 10.31203 | 123.97847 | 45 ft | 0 kts | 225° |
| 2026-05-04 03:20 | 10.31212 | 123.97856 | 44 ft | 4 kts | 228° |
| 2026-05-04 03:20 | 10.31229 | 123.97878 | 44 ft | 4 kts | 235° |
| 2026-05-04 03:20 | 10.31244 | 123.97900 | 42 ft | 4 kts | 238° |
| 2026-05-04 03:20 | 10.31257 | 123.97922 | 41 ft | 3 kts | 234° |
| 2026-05-04 03:21 | 10.31273 | 123.97936 | 41 ft | 4 kts | 175° |
| 2026-05-04 03:21 | 10.31295 | 123.97926 | 41 ft | 4 kts | 136° |
| 2026-05-04 03:21 | 10.31311 | 123.97909 | 41 ft | 0 kts | 135° |
| 2026-05-04 03:23 | 10.31302 | 123.97918 | 45 ft | 10 kts | 135° |
| 2026-05-04 03:24 | 10.31235 | 123.97978 | 45 ft | 14 kts | 155° |
| 2026-05-04 03:24 | 10.31156 | 123.97940 | 45 ft | 15 kts | 224° |
| 2026-05-04 03:24 | 10.31076 | 123.97860 | 44 ft | 18 kts | 224° |
| 2026-05-04 03:24 | 10.30977 | 123.97762 | 44 ft | 21 kts | 224° |
| 2026-05-04 03:25 | 10.30866 | 123.97651 | 45 ft | 24 kts | 224° |
| 2026-05-04 03:25 | 10.30742 | 123.97526 | 45 ft | 26 kts | 224° |
| 2026-05-04 03:25 | 10.30609 | 123.97391 | 45 ft | 28 kts | 225° |
| 2026-05-04 03:25 | 10.30466 | 123.97249 | 45 ft | 26 kts | 225° |
| 2026-05-04 03:26 | 10.30355 | 123.97139 | 45 ft | 24 kts | 225° |
| 2026-05-04 03:26 | 10.30232 | 123.97014 | 44 ft | 26 kts | 224° |
| 2026-05-04 03:26 | 10.30094 | 123.96877 | 44 ft | 29 kts | 224° |
| 2026-05-04 03:27 | 10.29857 | 123.96735 | 44 ft | 0 kts | 138° |
| 2026-05-04 03:28 | 10.29856 | 123.96736 | 44 ft | 0 kts | 138° |
| 2026-05-04 03:28 | 10.29854 | 123.96738 | 44 ft | 1 kts | 138° |
| 2026-05-04 03:28 | 10.29829 | 123.96762 | 44 ft | 10 kts | 136° |
| 2026-05-04 03:29 | 10.29786 | 123.96806 | 42 ft | 0 kts | 134° |
| 2026-05-04 03:29 | 10.29785 | 123.96807 | 42 ft | 1 kts | 134° |
| 2026-05-04 03:29 | 10.29738 | 123.96858 | 40 ft | 19 kts | 130° |
| 2026-05-04 03:30 | 10.29754 | 123.96938 | 40 ft | 12 kts | 46° |
| 2026-05-04 03:30 | 10.29761 | 123.96945 | 40 ft | 0 kts | 45° |
| 2026-05-04 03:32 | 10.29772 | 123.96957 | 39 ft | 12 kts | 45° |
| 2026-05-04 03:33 | 10.30013 | 123.97200 | 40 ft | 89 kts | 44° |
| 2026-05-04 03:33 | 10.30618 | 123.97807 | 42 ft | 155 kts | 44° |
| 2026-05-04 03:33 | 10.31411 | 123.98614 | 739 ft | 160 kts | 46° |
| 2026-05-04 03:33 | 10.32170 | 123.99411 | 1604 ft | 160 kts | 47° |
| 2026-05-04 03:34 | 10.33030 | 124.00274 | 1986 ft | 189 kts | 46° |
| 2026-05-04 03:34 | 10.34061 | 124.01259 | 2292 ft | 219 kts | 40° |
| 2026-05-04 03:34 | 10.35468 | 124.02102 | 2543 ft | 253 kts | 16° |
| 2026-05-04 03:34 | 10.37260 | 124.01968 | 3250 ft | 270 kts | 340° |
| 2026-05-04 03:35 | 10.38790 | 124.00870 | 4188 ft | 273 kts | 319° |
| 2026-05-04 03:35 | 10.40214 | 123.99567 | 5111 ft | 277 kts | 321° |
| 2026-05-04 03:35 | 10.41721 | 123.98330 | 6031 ft | 280 kts | 324° |
| 2026-05-04 03:35 | 10.43301 | 123.97149 | 6867 ft | 283 kts | 326° |
| 2026-05-04 03:36 | 10.44905 | 123.96019 | 7757 ft | 286 kts | 327° |
| 2026-05-04 03:36 | 10.46588 | 123.94867 | 8685 ft | 290 kts | 328° |
| 2026-05-04 03:36 | 10.48255 | 123.93746 | 9604 ft | 293 kts | 328° |
| 2026-05-04 03:36 | 10.49996 | 123.92585 | 10410 ft | 301 kts | 328° |
| 2026-05-04 03:37 | 10.51793 | 123.91394 | 10795 ft | 323 kts | 328° |
| 2026-05-04 03:37 | 10.53736 | 123.90110 | 11228 ft | 340 kts | 328° |
| 2026-05-04 03:37 | 10.55745 | 123.88781 | 11904 ft | 348 kts | 328° |
| 2026-05-04 03:37 | 10.57787 | 123.87412 | 12625 ft | 355 kts | 326° |
| 2026-05-04 03:38 | 10.59640 | 123.85744 | 13356 ft | 362 kts | 312° |
| 2026-05-04 03:38 | 10.61209 | 123.83717 | 14052 ft | 368 kts | 307° |
| 2026-05-04 03:38 | 10.62720 | 123.81602 | 14707 ft | 372 kts | 307° |
| 2026-05-04 03:38 | 10.64246 | 123.79459 | 15349 ft | 376 kts | 307° |
| 2026-05-04 03:39 | 10.65795 | 123.77291 | 15997 ft | 380 kts | 307° |
| 2026-05-04 03:39 | 10.67360 | 123.75109 | 16636 ft | 384 kts | 307° |
| 2026-05-04 03:39 | 10.68946 | 123.72901 | 17253 ft | 388 kts | 307° |
| 2026-05-04 03:39 | 10.70546 | 123.70674 | 17892 ft | 392 kts | 307° |
| 2026-05-04 03:40 | 10.72167 | 123.68421 | 18471 ft | 396 kts | 307° |
| 2026-05-04 03:40 | 10.73801 | 123.66149 | 19015 ft | 400 kts | 307° |
| 2026-05-04 03:40 | 10.75448 | 123.63858 | 19577 ft | 403 kts | 307° |
| 2026-05-04 03:40 | 10.77084 | 123.61583 | 20152 ft | 405 kts | 307° |
| 2026-05-04 03:41 | 10.78753 | 123.59262 | 20737 ft | 408 kts | 307° |
| 2026-05-04 03:41 | 10.80435 | 123.56921 | 21321 ft | 411 kts | 307° |
| 2026-05-04 03:41 | 10.82125 | 123.54569 | 21880 ft | 415 kts | 307° |
| 2026-05-04 03:41 | 10.83840 | 123.52184 | 22454 ft | 418 kts | 306° |
| 2026-05-04 03:42 | 10.85568 | 123.49777 | 22968 ft | 424 kts | 306° |
| 2026-05-04 03:42 | 10.87312 | 123.47348 | 23518 ft | 427 kts | 306° |
| 2026-05-04 03:42 | 10.89066 | 123.44906 | 24054 ft | 428 kts | 306° |
| 2026-05-04 03:42 | 10.90828 | 123.42454 | 24510 ft | 432 kts | 307° |
| 2026-05-04 03:43 | 10.92759 | 123.40081 | 24915 ft | 437 kts | 314° |
| 2026-05-04 03:43 | 10.94890 | 123.37859 | 25439 ft | 440 kts | 316° |
| 2026-05-04 03:43 | 10.97102 | 123.35699 | 25989 ft | 442 kts | 317° |
| 2026-05-04 03:43 | 10.99360 | 123.33559 | 26524 ft | 445 kts | 318° |
| 2026-05-04 03:44 | 11.01643 | 123.31412 | 27057 ft | 448 kts | 318° |
| 2026-05-04 03:44 | 11.03934 | 123.29249 | 27591 ft | 451 kts | 318° |
| 2026-05-04 03:44 | 11.06233 | 123.27067 | 28168 ft | 453 kts | 317° |
| 2026-05-04 03:44 | 11.08543 | 123.24859 | 28667 ft | 457 kts | 317° |
| 2026-05-04 03:45 | 11.10861 | 123.22635 | 29152 ft | 461 kts | 317° |
| 2026-05-04 03:45 | 11.13200 | 123.20385 | 29633 ft | 464 kts | 317° |
| 2026-05-04 03:45 | 11.14758 | 123.18884 | 29950 ft | 467 kts | 317° |
| 2026-05-04 03:45 | 11.17897 | 123.15859 | 30485 ft | 471 kts | 317° |
| 2026-05-04 03:46 | 11.20286 | 123.13556 | 30842 ft | 475 kts | 317° |
| 2026-05-04 03:46 | 11.21913 | 123.11989 | 31092 ft | 478 kts | 317° |
| 2026-05-04 03:46 | 11.25125 | 123.08893 | 31618 ft | 482 kts | 317° |
| 2026-05-04 03:46 | 11.27565 | 123.06541 | 32020 ft | 485 kts | 317° |
| 2026-05-04 03:47 | 11.30019 | 123.04174 | 32388 ft | 488 kts | 317° |
| 2026-05-04 03:47 | 11.32489 | 123.01793 | 32789 ft | 490 kts | 316° |
| 2026-05-04 03:47 | 11.34971 | 122.99399 | 33191 ft | 492 kts | 316° |
| 2026-05-04 03:47 | 11.37463 | 122.96994 | 33592 ft | 494 kts | 316° |
| 2026-05-04 03:48 | 11.39959 | 122.94586 | 34047 ft | 494 kts | 316° |
| 2026-05-04 03:48 | 11.42456 | 122.92176 | 34376 ft | 495 kts | 316° |
| 2026-05-04 03:48 | 11.44962 | 122.89757 | 34741 ft | 496 kts | 316° |
| 2026-05-04 03:48 | 11.47459 | 122.87346 | 35192 ft | 494 kts | 315° |
| 2026-05-04 03:49 | 11.49947 | 122.84943 | 35638 ft | 492 kts | 315° |
| 2026-05-04 03:49 | 11.52422 | 122.82552 | 36063 ft | 490 kts | 315° |
| 2026-05-04 03:49 | 11.54898 | 122.80159 | 36473 ft | 489 kts | 315° |
| 2026-05-04 03:49 | 11.57366 | 122.77773 | 36879 ft | 488 kts | 315° |
| 2026-05-04 03:50 | 11.59928 | 122.75503 | 37251 ft | 488 kts | 323° |
| 2026-05-04 03:50 | 11.62706 | 122.73513 | 37653 ft | 487 kts | 324° |
| 2026-05-04 03:50 | 11.65515 | 122.71568 | 37906 ft | 488 kts | 324° |
| 2026-05-04 03:50 | 11.68297 | 122.69657 | 37952 ft | 476 kts | 324° |
| 2026-05-04 03:51 | 11.71016 | 122.67794 | 37952 ft | 468 kts | 324° |
| 2026-05-04 03:51 | 11.76400 | 122.64109 | 37949 ft | 466 kts | 324° |
| 2026-05-04 03:52 | 11.81789 | 122.60422 | 37950 ft | 466 kts | 324° |
| 2026-05-04 03:52 | 11.87178 | 122.56734 | 37949 ft | 466 kts | 324° |
| 2026-05-04 03:53 | 11.92565 | 122.53047 | 37947 ft | 466 kts | 324° |
| 2026-05-04 03:53 | 11.97950 | 122.49359 | 37941 ft | 466 kts | 324° |
| 2026-05-04 03:54 | 12.03335 | 122.45670 | 37938 ft | 466 kts | 324° |
| 2026-05-04 03:54 | 12.08684 | 122.42003 | 37938 ft | 465 kts | 324° |
| 2026-05-04 03:55 | 12.14066 | 122.38314 | 37943 ft | 462 kts | 324° |
| 2026-05-04 03:55 | 12.19358 | 122.34683 | 37944 ft | 461 kts | 324° |
| 2026-05-04 03:56 | 12.24690 | 122.31022 | 37937 ft | 462 kts | 324° |
| 2026-05-04 03:56 | 12.30031 | 122.27354 | 37938 ft | 462 kts | 324° |
| 2026-05-04 03:57 | 12.35369 | 122.23686 | 37940 ft | 462 kts | 324° |
| 2026-05-04 03:57 | 12.40709 | 122.20015 | 37938 ft | 462 kts | 324° |
| 2026-05-04 03:58 | 12.48680 | 122.14534 | 37942 ft | 458 kts | 324° |
| 2026-05-04 03:58 | 12.51321 | 122.12715 | 37832 ft | 461 kts | 324° |
| 2026-05-04 03:58 | 12.54018 | 122.10856 | 37593 ft | 474 kts | 324° |
| 2026-05-04 03:59 | 12.56792 | 122.08944 | 37386 ft | 487 kts | 324° |
| 2026-05-04 03:59 | 12.59623 | 122.06994 | 37158 ft | 492 kts | 324° |
| 2026-05-04 03:59 | 12.62471 | 122.05032 | 36902 ft | 494 kts | 324° |
| 2026-05-04 03:59 | 12.65313 | 122.03076 | 36396 ft | 490 kts | 324° |
| 2026-05-04 04:00 | 12.68140 | 122.01127 | 35708 ft | 490 kts | 324° |
| 2026-05-04 04:00 | 12.70016 | 121.99834 | 35288 ft | 489 kts | 324° |
| 2026-05-04 04:00 | 12.72826 | 121.97897 | 34749 ft | 486 kts | 325° |
| 2026-05-04 04:00 | 12.76526 | 121.95344 | 34026 ft | 482 kts | 325° |
| 2026-05-04 04:01 | 12.79302 | 121.93428 | 33429 ft | 480 kts | 325° |
| 2026-05-04 04:01 | 12.82062 | 121.91524 | 32869 ft | 477 kts | 326° |
| 2026-05-04 04:01 | 12.84802 | 121.89632 | 32327 ft | 473 kts | 326° |
| 2026-05-04 04:01 | 12.86642 | 121.88361 | 31966 ft | 471 kts | 326° |
| 2026-05-04 04:02 | 12.89281 | 121.86539 | 31446 ft | 468 kts | 326° |
| 2026-05-04 04:02 | 12.91961 | 121.84687 | 30922 ft | 465 kts | 326° |
| 2026-05-04 04:02 | 12.94633 | 121.82840 | 30402 ft | 462 kts | 326° |
| 2026-05-04 04:02 | 12.97291 | 121.81002 | 29841 ft | 460 kts | 326° |
| 2026-05-04 04:03 | 12.99898 | 121.79200 | 29292 ft | 456 kts | 326° |
| 2026-05-04 04:03 | 13.02553 | 121.77363 | 28760 ft | 452 kts | 326° |
| 2026-05-04 04:03 | 13.05111 | 121.75594 | 28249 ft | 448 kts | 326° |
| 2026-05-04 04:03 | 13.07686 | 121.73811 | 27734 ft | 444 kts | 326° |
| 2026-05-04 04:04 | 13.10236 | 121.72047 | 27217 ft | 440 kts | 326° |
| 2026-05-04 04:04 | 13.12763 | 121.70297 | 26702 ft | 437 kts | 326° |
| 2026-05-04 04:04 | 13.15275 | 121.68557 | 26194 ft | 434 kts | 326° |
| 2026-05-04 04:04 | 13.17765 | 121.66832 | 25678 ft | 431 kts | 326° |
| 2026-05-04 04:05 | 13.20246 | 121.65113 | 25150 ft | 428 kts | 326° |
| 2026-05-04 04:05 | 13.22705 | 121.63409 | 24655 ft | 426 kts | 326° |
| 2026-05-04 04:05 | 13.25155 | 121.61710 | 24133 ft | 424 kts | 326° |
| 2026-05-04 04:05 | 13.27595 | 121.60019 | 23607 ft | 422 kts | 326° |
| 2026-05-04 04:06 | 13.30017 | 121.58339 | 23021 ft | 419 kts | 326° |
| 2026-05-04 04:06 | 13.32421 | 121.56670 | 22491 ft | 415 kts | 326° |
| 2026-05-04 04:06 | 13.34802 | 121.55018 | 21972 ft | 411 kts | 326° |
| 2026-05-04 04:06 | 13.37162 | 121.53380 | 21452 ft | 407 kts | 327° |
| 2026-05-04 04:07 | 13.39574 | 121.51704 | 20939 ft | 403 kts | 327° |
| 2026-05-04 04:07 | 13.41804 | 121.50156 | 20453 ft | 399 kts | 327° |
| 2026-05-04 04:07 | 13.44099 | 121.48562 | 19954 ft | 396 kts | 327° |
| 2026-05-04 04:07 | 13.46355 | 121.46994 | 19462 ft | 393 kts | 327° |
| 2026-05-04 04:08 | 13.48608 | 121.45428 | 18972 ft | 390 kts | 327° |
| 2026-05-04 04:08 | 13.50851 | 121.43870 | 18488 ft | 387 kts | 327° |
| 2026-05-04 04:08 | 13.53044 | 121.42344 | 18336 ft | 374 kts | 327° |
| 2026-05-04 04:08 | 13.55157 | 121.40874 | 18205 ft | 360 kts | 328° |
| 2026-05-04 04:09 | 13.57199 | 121.39453 | 18039 ft | 348 kts | 328° |
| 2026-05-04 04:09 | 13.59174 | 121.38043 | 17568 ft | 347 kts | 326° |
| 2026-05-04 04:09 | 13.61120 | 121.36580 | 17118 ft | 345 kts | 325° |
| 2026-05-04 04:09 | 13.63045 | 121.35128 | 16725 ft | 340 kts | 326° |
| 2026-05-04 04:10 | 13.64944 | 121.33702 | 16371 ft | 336 kts | 326° |
| 2026-05-04 04:10 | 13.66821 | 121.32297 | 16014 ft | 332 kts | 326° |
| 2026-05-04 04:10 | 13.68681 | 121.30907 | 15662 ft | 329 kts | 326° |
| 2026-05-04 04:10 | 13.70523 | 121.29533 | 15285 ft | 325 kts | 326° |
| 2026-05-04 04:11 | 13.72342 | 121.28177 | 14935 ft | 321 kts | 326° |
| 2026-05-04 04:11 | 13.74142 | 121.26834 | 14592 ft | 318 kts | 326° |
| 2026-05-04 04:11 | 13.75926 | 121.25503 | 14241 ft | 315 kts | 326° |
| 2026-05-04 04:11 | 13.77687 | 121.24190 | 13903 ft | 311 kts | 327° |
| 2026-05-04 04:12 | 13.79429 | 121.22888 | 13554 ft | 308 kts | 326° |
| 2026-05-04 04:12 | 13.81153 | 121.21601 | 13210 ft | 304 kts | 326° |
| 2026-05-04 04:12 | 13.82850 | 121.20335 | 12878 ft | 300 kts | 326° |
| 2026-05-04 04:12 | 13.84524 | 121.19086 | 12561 ft | 295 kts | 326° |
| 2026-05-04 04:13 | 13.86178 | 121.17849 | 12239 ft | 292 kts | 326° |
| 2026-05-04 04:13 | 13.87798 | 121.16639 | 11930 ft | 290 kts | 326° |
| 2026-05-04 04:13 | 13.89423 | 121.15428 | 11618 ft | 288 kts | 326° |
| 2026-05-04 04:13 | 13.91039 | 121.14223 | 11309 ft | 286 kts | 327° |
| 2026-05-04 04:14 | 13.92640 | 121.13026 | 11009 ft | 283 kts | 327° |
| 2026-05-04 04:14 | 13.94233 | 121.11836 | 10696 ft | 282 kts | 326° |
| 2026-05-04 04:14 | 13.95809 | 121.10658 | 10413 ft | 279 kts | 326° |
| 2026-05-04 04:14 | 13.97374 | 121.09488 | 10122 ft | 278 kts | 327° |
| 2026-05-04 04:15 | 13.98934 | 121.08322 | 9825 ft | 279 kts | 327° |
| 2026-05-04 04:15 | 14.00554 | 121.07115 | 9652 ft | 293 kts | 326° |
| 2026-05-04 04:15 | 14.02213 | 121.05881 | 9398 ft | 292 kts | 326° |
| 2026-05-04 04:15 | 14.03863 | 121.04644 | 8874 ft | 294 kts | 326° |
| 2026-05-04 04:16 | 14.05510 | 121.03408 | 8503 ft | 293 kts | 327° |
| 2026-05-04 04:16 | 14.07154 | 121.02176 | 8176 ft | 293 kts | 327° |
| 2026-05-04 04:16 | 14.08801 | 121.00943 | 7853 ft | 292 kts | 327° |
| 2026-05-04 04:16 | 14.10444 | 120.99713 | 7543 ft | 291 kts | 327° |
| 2026-05-04 04:17 | 14.12070 | 120.98484 | 7235 ft | 292 kts | 328° |
| 2026-05-04 04:17 | 14.13719 | 120.97248 | 6965 ft | 290 kts | 327° |
| 2026-05-04 04:17 | 14.15310 | 120.96059 | 6844 ft | 279 kts | 328° |
| 2026-05-04 04:17 | 14.16867 | 120.94906 | 6654 ft | 272 kts | 329° |
| 2026-05-04 04:18 | 14.18466 | 120.93885 | 6352 ft | 268 kts | 333° |
| 2026-05-04 04:18 | 14.20074 | 120.92932 | 6058 ft | 265 kts | 333° |
| 2026-05-04 04:18 | 14.21673 | 120.91992 | 5787 ft | 264 kts | 334° |
| 2026-05-04 04:18 | 14.23232 | 120.91071 | 5680 ft | 253 kts | 334° |
| 2026-05-04 04:19 | 14.24735 | 120.90182 | 5526 ft | 246 kts | 334° |
| 2026-05-04 04:19 | 14.26204 | 120.89314 | 5299 ft | 242 kts | 334° |
| 2026-05-04 04:19 | 14.27660 | 120.88454 | 5066 ft | 239 kts | 334° |
| 2026-05-04 04:19 | 14.29106 | 120.87608 | 4810 ft | 239 kts | 334° |
| 2026-05-04 04:20 | 14.30548 | 120.86766 | 4567 ft | 238 kts | 334° |
| 2026-05-04 04:20 | 14.31986 | 120.85926 | 4333 ft | 237 kts | 334° |
| 2026-05-04 04:20 | 14.33427 | 120.85082 | 4088 ft | 238 kts | 334° |
| 2026-05-04 04:20 | 14.34872 | 120.84236 | 3844 ft | 238 kts | 334° |
| 2026-05-04 04:21 | 14.36307 | 120.83397 | 3633 ft | 237 kts | 334° |
| 2026-05-04 04:21 | 14.37782 | 120.82680 | 3358 ft | 232 kts | 351° |
| 2026-05-04 04:21 | 14.39308 | 120.82836 | 3153 ft | 217 kts | 30° |
| 2026-05-04 04:21 | 14.40531 | 120.83696 | 3006 ft | 212 kts | 45° |
| 2026-05-04 04:22 | 14.41446 | 120.84878 | 2989 ft | 211 kts | 61° |
| 2026-05-04 04:22 | 14.42146 | 120.86156 | 2986 ft | 201 kts | 63° |
| 2026-05-04 04:22 | 14.42821 | 120.87394 | 2885 ft | 192 kts | 62° |
| 2026-05-04 04:22 | 14.43452 | 120.88527 | 2625 ft | 184 kts | 62° |
| 2026-05-04 04:23 | 14.44094 | 120.89687 | 2298 ft | 179 kts | 62° |
| 2026-05-04 04:23 | 14.44686 | 120.90761 | 2033 ft | 169 kts | 62° |
| 2026-05-04 04:23 | 14.45243 | 120.91770 | 1817 ft | 155 kts | 62° |
| 2026-05-04 04:23 | 14.45760 | 120.92706 | 1630 ft | 146 kts | 62° |
| 2026-05-04 04:24 | 14.46246 | 120.93587 | 1410 ft | 137 kts | 62° |
| 2026-05-04 04:24 | 14.46703 | 120.94414 | 1255 ft | 130 kts | 63° |
| 2026-05-04 04:24 | 14.47143 | 120.95221 | 1084 ft | 129 kts | 63° |
| 2026-05-04 04:24 | 14.47586 | 120.96041 | 989 ft | 132 kts | 61° |
| 2026-05-04 04:25 | 14.48043 | 120.96869 | 783 ft | 132 kts | 61° |
| 2026-05-04 04:25 | 14.48510 | 120.97682 | 638 ft | 132 kts | 61° |
| 2026-05-04 04:25 | 14.48968 | 120.98507 | 455 ft | 133 kts | 63° |
| 2026-05-04 04:25 | 14.49426 | 120.99341 | 275 ft | 133 kts | 62° |
| 2026-05-04 04:26 | 14.49883 | 121.00165 | 116 ft | 132 kts | 60° |
| 2026-05-04 04:26 | 14.50303 | 121.00943 | 65 ft | 100 kts | 60° |
| 2026-05-04 04:26 | 14.50517 | 121.01324 | 66 ft | 47 kts | 60° |
| 2026-05-04 04:26 | 14.50677 | 121.01608 | 66 ft | 44 kts | 59° |
| 2026-05-04 04:27 | 14.50801 | 121.01746 | 63 ft | 22 kts | 40° |
| 2026-05-04 04:27 | 14.50857 | 121.01784 | 69 ft | 8 kts | 19° |
| 2026-05-04 04:27 | 14.50898 | 121.01761 | 65 ft | 7 kts | 293° |
| 2026-05-04 04:27 | 14.50885 | 121.01710 | 64 ft | 9 kts | 243° |
| 2026-05-04 04:28 | 14.50850 | 121.01645 | 64 ft | 12 kts | 241° |
| 2026-05-04 04:28 | 14.50805 | 121.01561 | 67 ft | 15 kts | 241° |
| 2026-05-04 04:28 | 14.50757 | 121.01476 | 66 ft | 13 kts | 239° |
| 2026-05-04 04:28 | 14.50708 | 121.01392 | 67 ft | 14 kts | 239° |
| 2026-05-04 04:29 | 14.50657 | 121.01302 | 65 ft | 10 kts | 241° |
| 2026-05-04 04:29 | 14.50629 | 121.01250 | 65 ft | 10 kts | 241° |
| 2026-05-04 04:29 | 14.50592 | 121.01183 | 65 ft | 11 kts | 239° |
| 2026-05-04 04:29 | 14.50548 | 121.01105 | 69 ft | 14 kts | 240° |
| 2026-05-04 04:30 | 14.50494 | 121.01006 | 68 ft | 17 kts | 240° |
| 2026-05-04 04:30 | 14.50428 | 121.00887 | 64 ft | 21 kts | 240° |
| 2026-05-04 04:30 | 14.50374 | 121.00777 | 64 ft | 10 kts | 259° |
| 2026-05-04 04:30 | 14.50382 | 121.00693 | 66 ft | 13 kts | 278° |
| 2026-05-04 04:31 | 14.50377 | 121.00656 | 64 ft | 0 kts | 252° |
| 2026-05-04 04:33 | 14.50377 | 121.00655 | 64 ft | 1 kts | 252° |
| 2026-05-04 04:33 | 14.50365 | 121.00621 | 66 ft | 8 kts | 257° |
| 2026-05-04 04:33 | 14.50389 | 121.00569 | 64 ft | 10 kts | 306° |
| 2026-05-04 04:34 | 14.50415 | 121.00534 | 67 ft | 0 kts | 307° |
| 2026-05-04 04:34 | 14.50417 | 121.00531 | 68 ft | 0 kts | 305° |
| 2026-05-04 04:34 | 14.50418 | 121.00530 | 68 ft | 0 kts | 305° |
| 2026-05-04 04:34 | 14.50420 | 121.00527 | 66 ft | 2 kts | 305° |
| 2026-05-04 04:35 | 14.50425 | 121.00520 | 64 ft | 1 kts | 306° |
| 2026-05-04 04:35 | 14.50430 | 121.00513 | 64 ft | 2 kts | 306° |
| 2026-05-04 04:35 | 14.50435 | 121.00505 | 66 ft | 1 kts | 307° |
| 2026-05-04 04:35 | 14.50438 | 121.00501 | 64 ft | 0 kts | 307° |
| 2026-05-04 04:36 | 14.50439 | 121.00499 | 64 ft | 0 kts | 307° |
| 2026-05-04 04:39 | 14.50439 | 121.00500 | 64 ft | 0 kts | 307° |